< < Back
Terminal Aerodrome Forecast


Current Version              Previous Versions:   1  2  3  4  5  6  7  8  9  

Terminal Aerodrome Forecast

340
FTUS42 KCHS 161800 AAA
TAFCHS
TAF AMD
KCHS 161851Z 1619/1718 VRB06KT P6SM VCSH SCT025 BKN040
      TEMPO 1619/1620 4SM SHRA BR BKN025
     FM162000 VRB05KT P6SM VCSH SCT025 BKN040
      TEMPO 1620/1623 4SM -TSRA BR SCT015 BKN035CB
     FM170100 VRB03KT 6SM BR FEW015 SCT050 BKN120
     FM170900 VRB02KT 4SM BR SCT008 BKN015
     FM171330 VRB04KT P6SM SCT015 BKN035=

Latest METAR

486
SAUS80 KWBC 161900 CCB
MTRCHS
METAR KCHS 161856Z 15011KT 10SM SCT030 BKN040 BKN070 29/23 A2996 RMK AO2
SLP145 CB DSNT NE T02890233


USA.gov is the U.S. government's official web portal to all federal, state and local government web resources and services.